Time;durP1;ratioP1;P1;durP2;ratioP2;P2;SDS_P1;SDS_P2;PMS_P1;PMS_P2;Temp;Humidity;BMP_temperature;BMP_pressure;BME280_temperature;BME280_humidity;BME280_pressure;Samples;Min_cycle;Max_cycle;Signal;HPM_P1;HPM_P2
2024/02/21 00:00:05;;;;;;;0.75;0.52;;;;;;;11.74;69.02;102224.41;5106260;28;20042;-78
2024/02/21 00:02:31;;;;;;;0.10;0.10;;;;;;;11.82;68.64;102212.00;5100847;28;20421;-78
2024/02/21 00:04:58;;;;;;;0.15;0.15;;;;;;;11.85;68.78;102217.34;5107563;28;20046;-77
2024/02/21 00:07:24;;;;;;;0.40;0.40;;;;;;;11.82;68.42;102217.31;5100245;28;20442;-78
2024/02/21 00:09:50;;;;;;;0.10;0.10;;;;;;;11.80;68.68;102216.44;5105637;28;20107;-78
2024/02/21 00:12:16;;;;;;;0.10;0.10;;;;;;;11.75;68.88;102197.88;5105824;28;20036;-78
2024/02/21 00:14:43;;;;;;;0.10;0.10;;;;;;;11.77;69.30;102188.13;5110082;28;20038;-78
2024/02/21 00:17:09;;;;;;;0.15;0.15;;;;;;;11.85;68.98;102204.06;5109912;28;20044;-79
2024/02/21 00:19:35;;;;;;;0.65;0.35;;;;;;;11.81;69.56;102189.00;5105674;28;20043;-79
2024/02/21 00:22:02;;;;;;;0.10;0.10;;;;;;;11.73;69.61;102198.78;5100277;28;20042;-79
2024/02/21 00:24:28;;;;;;;0.20;0.20;;;;;;;11.73;69.38;102209.41;5112348;28;20043;-79
2024/02/21 00:26:54;;;;;;;0.10;0.10;;;;;;;11.81;69.00;102196.97;5103886;28;20039;-77
2024/02/21 00:29:20;;;;;;;0.10;0.10;;;;;;;11.81;68.79;102178.38;5106767;28;20024;-78
2024/02/21 00:31:48;;;;;;;0.10;0.10;;;;;;;11.82;68.42;102183.72;5108698;28;20031;-78
2024/02/21 00:34:14;;;;;;;0.10;0.10;;;;;;;11.74;68.84;102192.56;5104487;28;20028;-78
2024/02/21 00:36:40;;;;;;;0.10;0.10;;;;;;;11.78;69.42;102189.91;5108459;28;20046;-78
2024/02/21 00:39:07;;;;;;;0.20;0.20;;;;;;;11.74;69.46;102205.84;5111965;28;20039;-78
2024/02/21 00:41:33;;;;;;;0.10;0.10;;;;;;;11.74;69.45;102205.84;5108597;28;20027;-78
2024/02/21 00:43:59;;;;;;;0.10;0.10;;;;;;;11.76;69.24;102198.75;5109359;28;20053;-79
2024/02/21 00:46:25;;;;;;;22.58;0.70;;;;;;;11.80;69.37;102200.50;5103618;28;20031;-79
2024/02/21 00:48:52;;;;;;;0.10;0.10;;;;;;;11.78;69.47;102199.66;5109141;28;20045;-79
2024/02/21 00:51:18;;;;;;;0.20;0.20;;;;;;;11.84;69.00;102194.31;5107050;28;20107;-79
2024/02/21 00:53:44;;;;;;;0.10;0.10;;;;;;;11.90;69.11;102204.91;5104228;28;20499;-79
2024/02/21 00:56:10;;;;;;;0.10;0.10;;;;;;;11.86;68.66;102207.56;5106841;28;20031;-78
2024/02/21 00:58:37;;;;;;;0.47;0.47;;;;;;;11.81;69.40;102207.59;5104884;28;20080;-78
2024/02/21 01:01:03;;;;;;;0.10;0.10;;;;;;;11.92;68.60;102196.94;5106488;28;20055;-77
2024/02/21 01:03:29;;;;;;;0.10;0.10;;;;;;;11.89;68.46;102176.59;5105009;28;20039;-77
2024/02/21 01:05:56;;;;;;;0.10;0.10;;;;;;;11.79;68.76;102182.81;5109151;28;20027;-77
2024/02/21 01:08:22;;;;;;;0.10;0.10;;;;;;;11.78;68.70;102183.72;5100814;28;20113;-78
2024/02/21 01:10:48;;;;;;;2.47;1.60;;;;;;;11.81;69.26;102184.59;5099626;28;20031;-78
2024/02/21 01:13:14;;;;;;;0.10;0.10;;;;;;;11.85;68.45;102174.84;5102535;28;20035;-78
2024/02/21 01:15:41;;;;;;;0.88;0.68;;;;;;;11.88;69.13;102166.84;5113222;28;20035;-78
2024/02/21 01:18:07;;;;;;;0.10;0.10;;;;;;;12.06;68.05;102173.00;5108690;28;20032;-78
2024/02/21 01:20:33;;;;;;;0.10;0.10;;;;;;;12.07;68.29;102164.16;5111930;28;20058;-77
2024/02/21 01:23:00;;;;;;;0.10;0.10;;;;;;;12.05;67.65;102158.84;5118492;28;20031;-78
2024/02/21 01:25:26;;;;;;;0.20;0.20;;;;;;;11.97;67.82;102158.88;5110243;28;20024;-79
2024/02/21 01:27:52;;;;;;;0.22;0.22;;;;;;;12.01;68.24;102153.53;5115424;28;20126;-78
2024/02/21 01:30:19;;;;;;;0.13;0.13;;;;;;;12.03;68.21;102147.34;5106982;28;20027;-79
2024/02/21 01:32:45;;;;;;;0.10;0.10;;;;;;;12.00;67.92;102154.44;5113944;28;20036;-79
2024/02/21 01:35:11;;;;;;;0.10;0.10;;;;;;;12.00;68.14;102147.38;5116130;28;20053;-80
2024/02/21 01:37:37;;;;;;;0.57;0.57;;;;;;;11.97;68.35;102134.97;5117739;28;20034;-79
2024/02/21 01:40:04;;;;;;;0.10;0.10;;;;;;;12.07;68.16;102137.56;5123419;28;20027;-79
2024/02/21 01:42:30;;;;;;;0.30;0.30;;;;;;;11.89;68.40;102133.22;5119642;28;20061;-79
2024/02/21 01:44:57;;;;;;;0.10;0.10;;;;;;;12.01;67.98;102130.50;5118589;28;20061;-80
2024/02/21 01:47:23;;;;;;;0.10;0.10;;;;;;;12.00;67.98;102133.19;5113862;28;20039;-79
2024/02/21 01:49:50;;;;;;;0.10;0.10;;;;;;;12.02;68.40;102139.38;5117625;28;20032;-79
2024/02/21 01:52:17;;;;;;;0.10;0.10;;;;;;;11.90;68.27;102141.19;5119338;28;20038;-79
2024/02/21 01:54:46;;;;;;;0.10;0.10;;;;;;;11.88;68.88;102136.75;5114864;28;20024;-80
2024/02/21 01:57:12;;;;;;;0.10;0.10;;;;;;;11.88;68.19;102134.97;5116753;28;20032;-78
2024/02/21 01:59:39;;;;;;;0.10;0.10;;;;;;;11.76;68.31;102137.69;5116160;28;20024;-79
2024/02/21 02:02:05;;;;;;;1.75;1.65;;;;;;;11.90;68.44;102129.66;5117413;28;20492;-78
2024/02/21 02:04:32;;;;;;;0.10;0.10;;;;;;;11.76;68.55;102112.03;5116279;28;20028;-78
2024/02/21 02:07:02;;;;;;;0.10;0.10;;;;;;;11.76;68.91;102111.13;5104755;28;20031;-78
2024/02/21 02:09:28;;;;;;;0.10;0.10;;;;;;;11.82;68.62;102108.44;5107255;28;20491;-77
2024/02/21 02:11:55;;;;;;;0.10;0.10;;;;;;;11.67;69.08;102111.19;5107381;28;20112;-78
2024/02/21 02:14:21;;;;;;;0.10;0.10;;;;;;;11.82;68.58;102111.09;5108786;28;20032;-79
2024/02/21 02:16:48;;;;;;;0.10;0.10;;;;;;;11.70;69.34;102112.06;5111440;28;20036;-79
2024/02/21 02:19:15;;;;;;;0.30;0.30;;;;;;;11.73;69.00;102100.53;5107164;28;20043;-78
2024/02/21 02:21:47;;;;;;;1.30;1.20;;;;;;;11.85;68.56;102099.59;5113036;28;20103;-77
2024/02/21 02:24:14;;;;;;;0.10;0.10;;;;;;;11.83;69.14;102107.56;5106537;28;20092;-77
2024/02/21 02:26:40;;;;;;;0.38;0.35;;;;;;;11.78;69.14;102099.59;5115788;28;20024;-78
2024/02/21 02:29:07;;;;;;;0.20;0.20;;;;;;;11.87;68.98;102098.69;5116609;28;20114;-78
2024/02/21 02:31:33;;;;;;;0.20;0.20;;;;;;;11.83;69.00;102096.94;5120690;28;20479;-80
2024/02/21 02:33:59;;;;;;;0.40;0.40;;;;;;;11.83;68.98;102099.59;5120735;28;20091;-79
2024/02/21 02:36:25;;;;;;;0.10;0.10;;;;;;;11.89;68.28;102088.94;5115111;28;20024;-78
2024/02/21 02:38:52;;;;;;;0.10;0.10;;;;;;;11.91;69.05;102089.84;5115266;28;20049;-78
2024/02/21 02:41:18;;;;;;;0.30;0.30;;;;;;;11.86;68.90;102080.09;5118361;28;20088;-79
2024/02/21 02:43:44;;;;;;;0.28;0.28;;;;;;;11.90;68.86;102087.16;5118895;28;20016;-80
2024/02/21 02:46:10;;;;;;;0.10;0.10;;;;;;;11.87;68.92;102093.38;5115941;28;20027;-78
2024/02/21 02:48:38;;;;;;;1.05;0.38;;;;;;;11.94;68.91;102086.28;5112512;28;20063;-78
2024/02/21 02:51:04;;;;;;;0.20;0.20;;;;;;;11.97;67.90;102081.84;5115336;28;20117;-79
2024/02/21 02:53:31;;;;;;;0.15;0.15;;;;;;;11.94;68.60;102079.16;5114080;28;20487;-78
2024/02/21 02:55:57;;;;;;;0.20;0.20;;;;;;;11.89;68.59;102082.75;5115273;28;20035;-79
2024/02/21 02:58:23;;;;;;;0.10;0.10;;;;;;;11.80;68.86;102067.72;5115417;28;20046;-78
2024/02/21 03:00:50;;;;;;;27.20;1.27;;;;;;;11.93;68.59;102065.91;5118658;28;20028;-79
2024/02/21 03:03:16;;;;;;;0.10;0.10;;;;;;;11.93;68.85;102058.81;5115715;28;20023;-79
2024/02/21 03:05:42;;;;;;;1.33;0.43;;;;;;;11.95;68.80;102057.03;5113054;28;20024;-78
2024/02/21 03:08:08;;;;;;;0.63;0.63;;;;;;;11.97;68.68;102051.75;5112683;28;20027;-79
2024/02/21 03:10:35;;;;;;;0.20;0.20;;;;;;;11.99;68.25;102049.97;5113522;28;20038;-78
2024/02/21 03:13:01;;;;;;;0.10;0.10;;;;;;;11.92;68.52;102038.44;5111455;28;20118;-78
2024/02/21 03:15:28;;;;;;;0.43;0.43;;;;;;;11.91;68.07;102036.72;5098388;28;20024;-78
2024/02/21 03:17:54;;;;;;;0.20;0.20;;;;;;;11.89;68.49;102043.78;5109408;28;20034;-78
2024/02/21 03:20:20;;;;;;;0.17;0.17;;;;;;;11.86;68.68;102035.84;5103115;28;20036;-77
2024/02/21 03:22:46;;;;;;;0.10;0.10;;;;;;;11.88;68.29;102035.84;5112196;28;20046;-77
2024/02/21 03:25:14;;;;;;;0.10;0.10;;;;;;;11.81;68.31;102029.66;5110261;28;20028;-77
2024/02/21 03:27:40;;;;;;;0.10;0.10;;;;;;;11.92;68.75;102016.34;5106074;28;20020;-77
2024/02/21 03:30:06;;;;;;;0.10;0.10;;;;;;;11.93;68.46;102010.13;5107562;28;20035;-78
2024/02/21 03:32:33;;;;;;;0.25;0.25;;;;;;;11.97;67.87;102015.47;5111699;28;20035;-78
2024/02/21 03:34:59;;;;;;;0.10;0.10;;;;;;;11.86;68.33;102006.63;5108709;28;20042;-77
2024/02/21 03:37:26;;;;;;;0.20;0.20;;;;;;;11.83;68.72;102014.63;5109396;28;20059;-78
2024/02/21 03:39:52;;;;;;;0.10;0.10;;;;;;;11.83;68.37;102011.97;5116908;28;20016;-78
2024/02/21 03:42:18;;;;;;;0.45;0.32;;;;;;;11.78;68.62;102011.13;5114016;28;20044;-78
2024/02/21 03:44:44;;;;;;;0.40;0.40;;;;;;;11.69;68.89;102009.41;5114818;28;20028;-78
2024/02/21 03:47:11;;;;;;;0.10;0.10;;;;;;;11.70;68.78;102005.88;5107019;28;20027;-78
2024/02/21 03:49:38;;;;;;;0.10;0.10;;;;;;;11.68;69.12;102006.75;5114513;28;20020;-78
2024/02/21 03:52:04;;;;;;;0.10;0.10;;;;;;;11.64;68.53;102004.13;5119788;28;20024;-78
2024/02/21 03:54:31;;;;;;;0.10;0.10;;;;;;;11.68;68.77;102004.09;5111970;28;20077;-78
2024/02/21 03:56:57;;;;;;;0.10;0.10;;;;;;;11.63;68.77;102005.00;5105143;28;20035;-78
2024/02/21 03:59:23;;;;;;;0.20;0.20;;;;;;;11.52;69.15;102022.75;5118768;28;20042;-79
2024/02/21 04:01:53;;;;;;;0.10;0.10;;;;;;;11.55;69.39;102004.19;5107730;28;20483;-78
2024/02/21 04:04:19;;;;;;;0.10;0.10;;;;;;;11.54;68.76;101997.09;5111539;28;20024;-78
2024/02/21 04:06:48;;;;;;;0.30;0.30;;;;;;;11.53;69.03;101975.88;5113753;28;20024;-78
2024/02/21 04:09:14;;;;;;;0.95;0.63;;;;;;;11.56;68.76;101987.34;5107854;28;20015;-79
2024/02/21 04:11:40;;;;;;;0.10;0.10;;;;;;;11.63;69.29;101983.75;5112084;28;20024;-78
2024/02/21 04:14:07;;;;;;;0.15;0.15;;;;;;;11.42;69.24;101995.38;5116919;28;20109;-78
2024/02/21 04:16:34;;;;;;;0.10;0.10;;;;;;;11.55;69.48;101990.91;5107978;28;20020;-79
2024/02/21 04:19:01;;;;;;;0.10;0.10;;;;;;;11.56;69.14;101997.94;5119843;28;20065;-78
2024/02/21 04:21:28;;;;;;;0.10;0.10;;;;;;;11.48;68.93;101995.34;5113377;28;20031;-78
2024/02/21 04:23:54;;;;;;;0.10;0.10;;;;;;;11.43;69.10;101996.28;5103723;28;20023;-78
2024/02/21 04:26:20;;;;;;;0.10;0.10;;;;;;;11.63;69.03;101994.38;5107197;28;20020;-77
2024/02/21 04:28:46;;;;;;;0.57;0.57;;;;;;;11.47;68.95;102001.53;5110116;28;20062;-77
2024/02/21 04:31:13;;;;;;;0.10;0.10;;;;;;;11.60;68.92;101997.06;5111430;28;20028;-78
2024/02/21 04:33:39;;;;;;;0.10;0.10;;;;;;;11.60;69.25;101986.44;5107797;28;20080;-78
2024/02/21 04:36:05;;;;;;;0.10;0.10;;;;;;;11.59;69.32;101984.69;5119645;28;20027;-78
2024/02/21 04:38:32;;;;;;;0.77;0.77;;;;;;;11.58;69.17;101977.59;5117540;28;20045;-77
2024/02/21 04:40:58;;;;;;;0.75;0.75;;;;;;;11.64;68.94;101974.91;5118072;27;20133;-78
2024/02/21 04:43:25;;;;;;;0.20;0.20;;;;;;;11.58;69.09;101966.97;5106118;28;20491;-77
2024/02/21 04:45:53;;;;;;;0.40;0.40;;;;;;;11.52;69.35;101958.19;5112312;28;20032;-78
2024/02/21 04:48:20;;;;;;;0.10;0.10;;;;;;;11.61;68.97;101947.50;5113186;28;20115;-78
2024/02/21 04:50:46;;;;;;;0.20;0.20;;;;;;;11.61;69.15;101959.03;5116575;28;20027;-78
2024/02/21 04:53:12;;;;;;;0.50;0.50;;;;;;;11.60;69.37;101954.59;5115932;28;20027;-76
2024/02/21 04:55:39;;;;;;;0.20;0.20;;;;;;;11.62;69.13;101944.81;5120502;28;20083;-79
2024/02/21 04:58:06;;;;;;;0.10;0.10;;;;;;;11.64;69.00;101958.13;5118647;28;20061;-79
2024/02/21 05:00:32;;;;;;;0.20;0.20;;;;;;;11.57;69.91;101959.91;5119731;28;20044;-78
2024/02/21 05:02:58;;;;;;;0.20;0.20;;;;;;;11.54;69.94;101951.97;5111429;28;20027;-78
2024/02/21 05:05:24;;;;;;;0.57;0.57;;;;;;;11.61;69.29;101939.53;5112179;28;20044;-77
2024/02/21 05:07:51;;;;;;;0.60;0.60;;;;;;;11.49;69.74;101944.03;5113428;28;20040;-78
2024/02/21 05:10:18;;;;;;;0.10;0.10;;;;;;;11.54;69.33;101941.38;5113489;28;20018;-78
2024/02/21 05:12:44;;;;;;;0.25;0.25;;;;;;;11.50;69.39;101923.66;5109504;28;20024;-78
2024/02/21 05:15:10;;;;;;;0.10;0.10;;;;;;;11.46;69.74;101927.25;5111949;28;20047;-78
2024/02/21 05:17:36;;;;;;;0.68;0.68;;;;;;;11.49;69.49;101912.19;5108174;28;20415;-78
2024/02/21 05:20:03;;;;;;;0.65;0.40;;;;;;;11.43;69.73;101928.16;5108401;28;20046;-78
2024/02/21 05:22:29;;;;;;;0.10;0.10;;;;;;;11.45;69.70;101925.47;5108128;28;20048;-78
2024/02/21 05:24:56;;;;;;;0.10;0.10;;;;;;;11.44;70.30;101919.31;5105929;28;20019;-78
2024/02/21 05:27:22;;;;;;;0.15;0.15;;;;;;;11.44;69.83;101908.69;5113016;28;20016;-77
2024/02/21 05:29:49;;;;;;;0.38;0.38;;;;;;;11.51;69.57;101903.34;5111834;28;20036;-78
2024/02/21 05:32:16;;;;;;;0.20;0.20;;;;;;;11.52;70.05;101889.19;5108255;28;20073;-78
2024/02/21 05:34:42;;;;;;;0.10;0.10;;;;;;;11.51;69.92;101893.59;5104483;28;20054;-78
2024/02/21 05:37:08;;;;;;;0.43;0.40;;;;;;;11.50;70.26;101883.88;5106240;28;20036;-78
2024/02/21 05:39:34;;;;;;;0.10;0.10;;;;;;;11.43;70.01;101879.50;5108550;28;20099;-77
2024/02/21 05:42:01;;;;;;;0.10;0.10;;;;;;;11.53;69.87;101873.25;5113486;28;20082;-77
2024/02/21 05:44:27;;;;;;;0.13;0.13;;;;;;;11.52;69.65;101866.16;5109714;28;20100;-77
2024/02/21 05:46:53;;;;;;;0.20;0.20;;;;;;;11.53;69.69;101867.94;5112548;28;20031;-78
2024/02/21 05:49:19;;;;;;;0.10;0.10;;;;;;;11.55;69.51;101858.19;5114964;28;20023;-78
2024/02/21 05:51:45;;;;;;;0.20;0.20;;;;;;;11.54;69.37;101856.44;5115602;28;20020;-78
2024/02/21 05:54:11;;;;;;;0.38;0.38;;;;;;;11.55;69.38;101855.53;5114203;28;20498;-78
2024/02/21 05:56:38;;;;;;;0.20;0.20;;;;;;;11.51;69.51;101851.13;5113562;28;20058;-78
2024/02/21 05:59:04;;;;;;;0.10;0.10;;;;;;;11.54;69.55;101848.47;5111196;28;20032;-78
2024/02/21 06:01:30;;;;;;;2.40;2.28;;;;;;;11.45;70.21;101851.19;5113402;28;20036;-77
2024/02/21 06:03:56;;;;;;;0.10;0.10;;;;;;;11.51;69.64;101842.28;5110256;28;20491;-78
2024/02/21 06:06:22;;;;;;;0.20;0.20;;;;;;;11.46;69.63;101842.31;5116110;28;20040;-78
2024/02/21 06:08:48;;;;;;;0.47;0.47;;;;;;;11.39;70.35;101835.28;5118031;28;20028;-78
2024/02/21 06:11:15;;;;;;;0.10;0.10;;;;;;;11.45;69.79;101836.16;5113157;28;20027;-79
2024/02/21 06:13:41;;;;;;;0.30;0.30;;;;;;;11.41;70.11;101842.34;5114099;28;20023;-77
2024/02/21 06:16:08;;;;;;;0.10;0.10;;;;;;;11.45;69.92;101844.09;5114603;28;20433;-78
2024/02/21 06:18:37;;;;;;;0.10;0.10;;;;;;;11.45;70.03;101840.56;5115385;28;20070;-78
2024/02/21 06:21:03;;;;;;;1.58;1.48;;;;;;;11.45;70.48;101848.50;5115941;28;20240;-77
2024/02/21 06:23:29;;;;;;;0.17;0.17;;;;;;;11.41;70.05;101849.44;5110356;28;20024;-77
2024/02/21 06:25:55;;;;;;;0.47;0.47;;;;;;;11.42;69.76;101861.81;5111229;28;20043;-78
2024/02/21 06:28:22;;;;;;;0.30;0.30;;;;;;;11.51;69.85;101859.09;5109177;28;20020;-79
2024/02/21 06:30:48;;;;;;;0.30;0.30;;;;;;;11.40;70.28;101860.94;5117669;28;20039;-78
2024/02/21 06:33:14;;;;;;;1.25;0.77;;;;;;;11.29;70.37;101861.91;5115581;28;20031;-78
2024/02/21 06:35:42;;;;;;;0.40;0.40;;;;;;;11.42;70.33;101867.13;5115120;28;20509;-77
2024/02/21 06:38:08;;;;;;;1.35;1.05;;;;;;;11.37;70.24;101864.50;5115510;28;20034;-78
2024/02/21 06:40:38;;;;;;;0.47;0.47;;;;;;;11.31;70.08;101864.53;5107493;28;20107;-78
2024/02/21 06:43:05;;;;;;;0.20;0.20;;;;;;;11.37;70.51;101861.84;5109657;28;20028;-77
2024/02/21 06:45:31;;;;;;;0.10;0.10;;;;;;;11.42;70.01;101840.59;5112477;28;20073;-77
2024/02/21 06:47:57;;;;;;;1.23;1.17;;;;;;;11.47;69.70;101844.09;5108162;28;20418;-77
2024/02/21 06:50:24;;;;;;;0.43;0.43;;;;;;;11.45;69.55;101837.91;5107449;28;20024;-78
2024/02/21 06:52:50;;;;;;;0.65;0.65;;;;;;;11.54;70.02;101837.84;5110258;28;20059;-77
2024/02/21 06:55:16;;;;;;;0.20;0.20;;;;;;;11.42;69.60;101835.28;5105276;28;20028;-79
2024/02/21 06:57:43;;;;;;;2.88;1.75;;;;;;;11.46;69.91;101826.41;5111140;28;20039;-78
2024/02/21 07:00:09;;;;;;;0.20;0.20;;;;;;;11.44;70.42;101818.47;5108361;28;20027;-78
2024/02/21 07:02:35;;;;;;;0.63;0.63;;;;;;;11.36;70.12;101817.63;5111454;28;20036;-78
2024/02/21 07:05:02;;;;;;;0.10;0.10;;;;;;;11.35;70.56;101822.94;5108406;28;20058;-78
2024/02/21 07:07:29;;;;;;;0.20;0.20;;;;;;;11.39;70.10;101822.03;5113676;28;20074;-78
2024/02/21 07:09:55;;;;;;;0.30;0.30;;;;;;;11.35;70.01;101818.50;5108369;28;20027;-77
2024/02/21 07:12:21;;;;;;;1.27;1.23;;;;;;;11.35;69.97;101812.34;5109866;28;20042;-78
2024/02/21 07:14:48;;;;;;;0.55;0.55;;;;;;;11.42;69.92;101806.09;5112693;28;20024;-79
2024/02/21 07:17:14;;;;;;;0.20;0.20;;;;;;;11.28;69.65;101814.16;5112347;28;20050;-79
2024/02/21 07:19:40;;;;;;;0.20;0.20;;;;;;;11.21;69.97;101801.84;5115528;28;20028;-79
2024/02/21 07:22:06;;;;;;;0.20;0.20;;;;;;;11.14;70.69;101793.03;5116273;28;20019;-79
2024/02/21 07:24:32;;;;;;;0.17;0.17;;;;;;;11.16;70.44;101785.94;5108227;28;20032;-78
2024/02/21 07:27:04;;;;;;;0.17;0.17;;;;;;;11.20;70.13;101792.97;5108941;28;20038;-79
2024/02/21 07:29:31;;;;;;;0.10;0.10;;;;;;;11.15;69.95;101784.19;5112762;28;20024;-79
2024/02/21 07:31:57;;;;;;;0.20;0.20;;;;;;;11.20;70.30;101777.06;5119835;28;20120;-78
2024/02/21 07:34:23;;;;;;;1.10;1.10;;;;;;;11.17;70.53;101771.78;5122553;28;20077;-79
2024/02/21 07:36:49;;;;;;;4.20;2.40;;;;;;;11.19;70.61;101758.50;5111024;28;20032;-78
2024/02/21 07:39:16;;;;;;;0.38;0.38;;;;;;;11.27;69.86;101769.97;5114394;28;20036;-79
2024/02/21 07:41:44;;;;;;;0.82;0.82;;;;;;;11.21;69.76;101768.22;5112517;28;20028;-79
2024/02/21 07:44:11;;;;;;;0.30;0.30;;;;;;;11.17;70.17;101750.56;5118491;28;20039;-79
2024/02/21 07:46:37;;;;;;;1.05;1.05;;;;;;;11.27;69.85;101762.00;5112900;28;20016;-79
2024/02/21 07:49:03;;;;;;;0.20;0.20;;;;;;;11.19;70.89;101755.88;5112853;28;20047;-79
2024/02/21 07:51:30;;;;;;;0.30;0.30;;;;;;;11.25;70.31;101754.06;5101688;28;20256;-80
2024/02/21 07:53:56;;;;;;;0.10;0.10;;;;;;;11.13;70.27;101749.72;5108848;28;20084;-79
2024/02/21 07:56:22;;;;;;;0.10;0.10;;;;;;;11.07;70.37;101748.91;5108474;28;20126;-78
2024/02/21 07:58:48;;;;;;;0.15;0.15;;;;;;;11.28;70.30;101738.09;5115358;28;20035;-79
2024/02/21 08:01:21;;;;;;;0.20;0.20;;;;;;;11.33;70.21;101732.75;5105286;28;20036;-79
2024/02/21 08:03:48;;;;;;;0.10;0.10;;;;;;;11.32;70.04;101734.53;5125041;28;20057;-79
2024/02/21 08:06:14;;;;;;;0.10;0.10;;;;;;;11.45;70.07;101732.66;5118657;28;20038;-77
2024/02/21 08:08:41;;;;;;;0.10;0.10;;;;;;;11.44;69.80;101733.53;5120883;28;20240;-78
2024/02/21 08:11:07;;;;;;;3.72;0.90;;;;;;;11.48;69.67;101734.41;5120133;28;20091;-79
2024/02/21 08:13:35;;;;;;;0.68;0.68;;;;;;;11.49;69.49;101731.72;5116547;28;20104;-79
2024/02/21 08:16:01;;;;;;;0.22;0.22;;;;;;;11.57;69.28;101723.69;5118966;28;20035;-79
2024/02/21 08:18:27;;;;;;;1.45;1.25;;;;;;;11.55;69.31;101725.50;5113722;28;20073;-79
2024/02/21 08:20:53;;;;;;;0.20;0.20;;;;;;;11.64;69.13;101720.06;5115276;28;20076;-80
2024/02/21 08:23:23;;;;;;;0.50;0.50;;;;;;;11.65;68.88;101711.22;5118189;28;20035;-78
2024/02/21 08:25:49;;;;;;;0.10;0.10;;;;;;;11.75;68.84;101705.78;5114751;28;20113;-79
2024/02/21 08:28:15;;;;;;;0.10;0.10;;;;;;;11.63;68.91;101705.03;5111511;28;20038;-78
2024/02/21 08:30:47;;;;;;;0.93;0.93;;;;;;;11.62;69.01;101708.59;5106145;28;20032;-78
2024/02/21 08:33:15;;;;;;;0.10;0.10;;;;;;;11.57;69.02;101713.06;5107062;28;20145;-78
2024/02/21 08:35:41;;;;;;;0.25;0.25;;;;;;;11.67;69.18;101707.66;5110816;28;20028;-78
2024/02/21 08:38:07;;;;;;;0.20;0.20;;;;;;;11.67;68.90;101694.41;5109977;28;20092;-78
2024/02/21 08:40:35;;;;;;;0.93;0.93;;;;;;;11.71;69.30;101685.50;5116664;28;20036;-77
2024/02/21 08:43:01;;;;;;;0.20;0.20;;;;;;;11.76;68.89;101686.31;5117530;28;20053;-78
2024/02/21 08:45:27;;;;;;;0.85;0.85;;;;;;;11.76;68.76;101683.66;5110155;28;20031;-78
2024/02/21 08:47:53;;;;;;;0.40;0.40;;;;;;;11.78;68.61;101684.53;5119660;28;20103;-78
2024/02/21 08:50:19;;;;;;;1.00;1.00;;;;;;;11.81;68.46;101679.19;5115844;28;20032;-78
2024/02/21 08:52:45;;;;;;;0.55;0.55;;;;;;;11.70;68.31;101681.06;5120724;28;20028;-78
2024/02/21 08:55:12;;;;;;;0.17;0.17;;;;;;;11.76;68.76;101675.69;5103603;28;20106;-77
2024/02/21 08:57:38;;;;;;;0.30;0.30;;;;;;;11.78;68.37;101671.25;5113983;28;20016;-77
2024/02/21 09:00:09;;;;;;;2.08;0.65;;;;;;;11.76;68.38;101676.59;5114313;28;20055;-77
2024/02/21 09:02:39;;;;;;;0.47;0.47;;;;;;;11.76;68.43;101670.38;5110905;28;20033;-77
2024/02/21 09:05:06;;;;;;;2.13;2.03;;;;;;;11.69;68.55;101666.03;5109612;28;20541;-76
2024/02/21 09:07:32;;;;;;;0.20;0.20;;;;;;;11.87;67.87;101652.56;5097468;28;20054;-77
2024/02/21 09:09:58;;;;;;;2.10;0.40;;;;;;;11.89;67.64;101655.22;5108288;28;20024;-77
2024/02/21 09:12:25;;;;;;;1.48;1.42;;;;;;;11.91;68.31;101651.63;5103942;28;20046;-76
2024/02/21 09:14:51;;;;;;;0.85;0.85;;;;;;;12.01;67.44;101639.13;5114855;28;20023;-78
2024/02/21 09:17:17;;;;;;;1.17;1.13;;;;;;;11.93;67.28;101636.53;5113463;28;20028;-77
2024/02/21 09:19:44;;;;;;;0.50;0.50;;;;;;;11.95;67.66;101629.44;5104992;28;20101;-77
2024/02/21 09:22:10;;;;;;;0.10;0.10;;;;;;;12.03;67.08;101626.72;5113038;28;20105;-78
2024/02/21 09:24:36;;;;;;;0.20;0.20;;;;;;;12.03;66.96;101628.50;5111197;28;20028;-77
2024/02/21 09:27:03;;;;;;;5.30;3.83;;;;;;;11.96;67.62;101610.00;5118522;28;20011;-77
2024/02/21 09:29:29;;;;;;;2.30;2.10;;;;;;;11.99;67.32;101598.44;5105526;28;20099;-77
2024/02/21 09:31:55;;;;;;;0.22;0.22;;;;;;;12.04;67.31;101601.03;5102176;28;20027;-77
2024/02/21 09:34:21;;;;;;;0.65;0.65;;;;;;;11.92;67.47;101597.59;5096660;28;20031;-78
2024/02/21 09:36:47;;;;;;;0.47;0.47;;;;;;;11.94;67.14;101590.50;5109280;28;20036;-78
2024/02/21 09:39:17;;;;;;;0.10;0.10;;;;;;;11.95;66.68;101575.44;5106626;28;20042;-79
2024/02/21 09:41:52;;;;;;;0.47;0.47;;;;;;;11.95;66.65;101571.00;5111925;28;20036;-79
2024/02/21 09:44:19;;;;;;;0.13;0.13;;;;;;;12.12;66.67;101561.94;5109289;28;20023;-79
2024/02/21 09:47:09;;;;;;;0.52;0.52;;;;;;;12.20;66.97;101546.78;5114108;28;20077;-79
2024/02/21 09:49:37;;;;;;;0.10;0.10;;;;;;;12.17;66.39;101533.53;5110887;28;20024;-78
2024/02/21 09:52:07;;;;;;;0.30;0.30;;;;;;;12.26;66.62;101533.41;5118346;28;20087;-78
2024/02/21 09:54:34;;;;;;;0.75;0.75;;;;;;;12.33;66.05;101520.88;5115531;28;20039;-79
2024/02/21 09:57:01;;;;;;;0.10;0.10;;;;;;;12.36;65.93;101517.28;5117003;28;20036;-78
2024/02/21 09:59:30;;;;;;;0.20;0.20;;;;;;;12.38;65.78;101515.50;5118216;28;20032;-79
2024/02/21 10:01:56;;;;;;;0.20;0.20;;;;;;;12.42;65.83;101510.13;5117111;27;20024;-79
2024/02/21 10:04:23;;;;;;;0.10;0.10;;;;;;;12.64;65.65;101519.50;5109763;28;20065;-79
2024/02/21 10:06:50;;;;;;;0.20;0.20;;;;;;;12.54;65.14;101511.66;5099969;28;20020;-79
2024/02/21 10:09:27;;;;;;;0.30;0.30;;;;;;;12.66;65.24;101499.97;5122585;28;20035;-79
2024/02/21 10:11:54;;;;;;;0.80;0.80;;;;;;;12.61;64.52;101497.38;5110181;28;20073;-78
2024/02/21 10:14:21;;;;;;;1.02;0.95;;;;;;;12.52;64.44;101492.19;5108793;28;20031;-79
2024/02/21 10:16:56;;;;;;;0.20;0.20;;;;;;;12.70;64.67;101483.03;5103204;28;20048;-80
2024/02/21 10:19:22;;;;;;;1.83;0.80;;;;;;;12.68;64.55;101460.91;5115724;28;20402;-80
2024/02/21 10:22:09;;;;;;;0.45;0.45;;;;;;;12.89;64.35;101451.63;5116180;28;20036;-79
2024/02/21 10:24:37;;;;;;;0.20;0.20;;;;;;;12.74;64.02;101444.84;5109410;28;20108;-77
2024/02/21 10:27:07;;;;;;;0.80;0.80;;;;;;;12.80;63.92;101430.56;5109014;28;20510;-79
2024/02/21 10:29:34;;;;;;;0.10;0.10;;;;;;;12.70;63.83;101395.28;5121108;28;20106;-77
2024/02/21 10:32:15;;;;;;;2.00;0.38;;;;;;;12.92;63.56;101390.41;5110376;28;20038;-78
2024/02/21 10:34:42;;;;;;;0.63;0.63;;;;;;;12.77;63.64;101406.66;5111886;28;20058;-78
2024/02/21 10:37:10;;;;;;;5.38;2.92;;;;;;;12.85;63.39;101441.97;5104764;28;20019;-78
2024/02/21 10:39:41;;;;;;;0.10;0.10;;;;;;;12.85;64.02;101431.34;5116428;28;20032;-78
2024/02/21 10:42:10;;;;;;;0.73;0.73;;;;;;;12.86;63.54;101448.16;5113623;28;20029;-77
2024/02/21 10:44:40;;;;;;;0.10;0.10;;;;;;;12.89;63.76;101448.13;5099665;28;20027;-77
2024/02/21 10:47:09;;;;;;;1.13;1.13;;;;;;;12.76;63.63;101458.09;5101342;28;20020;-77
2024/02/21 10:49:40;;;;;;;0.55;0.55;;;;;;;12.71;63.80;101452.00;5100525;28;20088;-77
2024/02/21 10:55:05;;;;;;;0.20;0.20;;;;;;;12.57;63.84;101447.84;5144689;27;20114;-77
2024/02/21 10:57:34;;;;;;;0.47;0.47;;;;;;;12.57;64.57;101438.97;5124506;27;20023;-76
2024/02/21 11:00:00;;;;;;;0.10;0.10;;;;;;;12.50;64.22;101435.56;5128410;27;20022;-75
2024/02/21 11:02:30;;;;;;;0.20;0.20;;;;;;;12.51;64.67;101431.09;5114870;27;20038;-75
2024/02/21 11:04:57;;;;;;;0.10;0.10;;;;;;;12.48;64.01;101432.03;5119803;27;20076;-76
2024/02/21 11:07:24;;;;;;;0.50;0.50;;;;;;;12.49;63.95;101433.81;5132124;27;20023;-76
2024/02/21 11:09:54;;;;;;;0.10;0.10;;;;;;;12.41;64.31;101431.28;5127516;27;20553;-77
2024/02/21 11:12:22;;;;;;;3.63;2.28;;;;;;;12.36;64.44;101424.28;5119644;27;20028;-76
2024/02/21 11:14:48;;;;;;;0.10;0.10;;;;;;;12.39;64.47;101417.16;5113273;27;20032;-76
2024/02/21 11:17:17;;;;;;;0.17;0.17;;;;;;;12.41;63.70;101404.72;5118385;27;20035;-74
2024/02/21 11:19:44;;;;;;;0.10;0.10;;;;;;;12.52;63.70;101396.50;5122651;27;20023;-75
2024/02/21 11:22:19;;;;;;;0.63;0.63;;;;;;;12.70;63.67;101367.84;5120556;27;20024;-76
2024/02/21 11:24:46;;;;;;;0.25;0.25;;;;;;;12.76;63.33;101351.72;5126838;27;20023;-78